Yigo, Guam
Current Conditions -  °F | °C
As of 2:01 PM on Sunday 26 Oct 2014 (Local Time) from PGUA Reporting Station
Drizzle Drizzle  
Wind Chill: 79°   Ceiling: Unl
Heat Index: 83°   Visibility: 9mi
Dew Point: 77°   Wind: 20mph
Humidity: 94%   Direction: 40°NE
Pressure: 29.87"   Gusts: 24mph
Location:  13.53°N, 144.89°E
Report Text: PGUA 260401Z AUTO 04017G21KT 9SM -DZ SCT003 26/25 A2987 RMK AO2 DZB0402 $
Loading
Personal Weather Stations






























Interactive Weather Map
Tropical Storm Tracking
New forecast layout! Learn more

10-Day Weather Forecast

Advertisements
Track Severe Weather on mobile